createdAt,value
2022-12-14T00:02:40.990Z,34.22
2022-12-14T00:07:42.407Z,40.22
2022-12-14T00:12:43.775Z,39.58
2022-12-14T00:17:45.690Z,38.70
2022-12-14T00:22:47.082Z,40.00
2022-12-14T00:27:48.918Z,41.13
2022-12-14T00:32:50.328Z,38.08
2022-12-14T00:37:51.735Z,36.85
2022-12-14T00:42:53.166Z,37.40
2022-12-14T00:47:54.938Z,35.88
2022-12-14T00:52:56.319Z,39.55
2022-12-14T00:57:57.675Z,43.97
2022-12-14T01:02:59.365Z,42.15
2022-12-14T01:08:00.904Z,42.47
2022-12-14T01:13:03.323Z,41.33
2022-12-14T01:18:04.853Z,41.05
2022-12-14T01:23:06.311Z,41.72
2022-12-14T01:28:07.835Z,44.00
2022-12-14T01:33:09.244Z,43.30
2022-12-14T01:38:10.616Z,39.63
2022-12-14T01:43:15.081Z,42.42
2022-12-14T01:48:18.152Z,41.03
2022-12-14T01:53:21.870Z,42.03
2022-12-14T01:58:24.573Z,40.03
2022-12-14T02:03:37.016Z,42.53
2022-12-14T02:08:39.269Z,41.85
2022-12-14T02:13:41.451Z,39.38
2022-12-14T02:18:42.878Z,42.65
2022-12-14T02:24:03.022Z,38.00
2022-12-14T02:34:06.558Z,31.45
2022-12-14T02:39:18.477Z,34.60
2022-12-14T02:44:22.645Z,34.17
2022-12-14T02:49:26.857Z,33.08
2022-12-14T02:54:28.260Z,29.30
2022-12-14T02:59:30.087Z,32.88
2022-12-14T03:04:31.494Z,30.33
2022-12-14T03:09:32.948Z,28.40
2022-12-14T03:14:36.666Z,28.23
2022-12-14T03:19:40.921Z,27.85
2022-12-14T03:24:43.665Z,31.25
2022-12-14T03:29:57.400Z,30.48
2022-12-14T03:35:01.933Z,27.70
2022-12-14T03:40:06.627Z,28.25
2022-12-14T03:45:20.023Z,26.05
2022-12-14T03:50:21.396Z,25.48
2022-12-14T03:55:25.553Z,28.67
2022-12-14T04:00:29.633Z,27.55
2022-12-14T04:05:45.482Z,24.75
2022-12-14T04:11:10.230Z,26.55
2022-12-14T04:16:32.180Z,24.27
2022-12-14T04:21:36.695Z,28.25
2022-12-14T04:26:42.580Z,28.58
2022-12-14T04:31:49.128Z,26.02
2022-12-14T04:36:56.070Z,24.58
2022-12-14T04:41:59.185Z,28.38
2022-12-14T04:47:01.857Z,28.83
2022-12-14T04:52:06.588Z,26.05
2022-12-14T04:57:19.425Z,28.25
2022-12-14T05:02:24.645Z,30.35
2022-12-14T05:07:48.826Z,31.70
2022-12-14T05:12:57.745Z,36.03
2022-12-14T05:18:02.422Z,39.50
2022-12-14T05:23:04.194Z,46.22
2022-12-14T05:28:05.804Z,38.17
2022-12-14T05:33:07.225Z,38.85
2022-12-14T05:38:10.134Z,38.60
2022-12-14T05:43:12.260Z,38.13
2022-12-14T05:48:13.680Z,38.08
2022-12-14T05:53:15.059Z,35.08
2022-12-14T05:58:16.747Z,34.85
2022-12-14T06:03:18.177Z,34.35
2022-12-14T06:08:19.982Z,36.88
2022-12-14T06:13:21.391Z,30.42
2022-12-14T06:18:24.249Z,32.67
2022-12-14T06:23:25.987Z,33.28
2022-12-14T06:28:27.898Z,31.42
2022-12-14T06:33:30.091Z,34.20
2022-12-14T06:38:31.792Z,35.53
2022-12-14T06:43:33.182Z,35.38
2022-12-14T06:48:34.600Z,33.88
2022-12-14T06:53:36.256Z,31.92
2022-12-14T06:58:37.999Z,35.60
2022-12-14T07:03:40.235Z,38.30
2022-12-14T07:08:41.771Z,38.50
2022-12-14T07:13:44.534Z,35.10
2022-12-14T07:18:46.001Z,38.00
2022-12-14T07:23:48.090Z,43.40
2022-12-14T07:28:50.052Z,39.17
2022-12-14T07:33:55.184Z,41.20
2022-12-14T07:38:56.757Z,45.97
2022-12-14T07:43:59.345Z,46.97
2022-12-14T07:49:01.558Z,41.20
2022-12-14T07:54:03.719Z,42.20
2022-12-14T07:59:06.707Z,44.38
2022-12-14T08:04:12.355Z,47.88
2022-12-14T08:09:15.610Z,47.20
2022-12-14T08:14:17.826Z,42.42
2022-12-14T08:19:19.840Z,39.55
2022-12-14T08:24:21.277Z,43.00
2022-12-14T08:29:22.631Z,41.95
2022-12-14T08:34:24.118Z,49.97
2022-12-14T08:39:25.511Z,49.33
2022-12-14T08:44:26.974Z,46.40
2022-12-14T08:49:32.219Z,44.65
2022-12-14T08:54:34.120Z,40.30
2022-12-14T09:00:00.093Z,41.85
2022-12-14T09:04:56.913Z,42.10
2022-12-14T09:09:58.500Z,46.38
2022-12-14T09:14:59.907Z,45.15
2022-12-14T09:20:01.378Z,42.40
2022-12-14T09:25:02.874Z,39.92
2022-12-14T09:30:04.539Z,46.05
2022-12-14T09:35:06.321Z,44.92
2022-12-14T09:40:07.964Z,39.20
2022-12-14T09:45:18.895Z,40.78
2022-12-14T09:50:21.298Z,46.13
2022-12-14T09:55:28.744Z,45.58
2022-12-14T10:00:32.990Z,41.20
2022-12-14T10:05:37.865Z,38.85
2022-12-14T10:10:39.261Z,42.67
2022-12-14T10:15:46.327Z,43.97
2022-12-14T10:20:54.771Z,43.88
2022-12-14T10:25:59.191Z,39.78
2022-12-14T10:31:01.266Z,36.25
2022-12-14T10:36:21.180Z,36.55
2022-12-14T10:41:22.720Z,34.28
2022-12-14T10:46:39.797Z,32.35
2022-12-14T10:51:43.544Z,32.00
2022-12-14T10:56:49.872Z,35.28
2022-12-14T11:01:58.678Z,32.67
2022-12-14T11:07:05.391Z,28.33
2022-12-14T11:12:08.764Z,27.75
2022-12-14T11:17:29.857Z,32.55
2022-12-14T11:22:42.832Z,28.23
2022-12-14T11:27:44.279Z,24.70
2022-12-14T11:32:51.978Z,28.52
2022-12-14T11:37:58.136Z,33.10
2022-12-14T11:43:04.558Z,34.28
2022-12-14T11:48:15.129Z,27.35
2022-12-14T11:53:18.248Z,31.20
2022-12-14T11:58:27.915Z,33.45
2022-12-14T12:03:32.619Z,30.40
2022-12-14T12:08:35.783Z,29.23
2022-12-14T12:13:38.791Z,28.75
2022-12-14T12:18:58.825Z,31.35
2022-12-14T12:24:15.480Z,31.50
2022-12-14T12:29:26.594Z,26.75
2022-12-14T12:34:48.294Z,23.30
2022-12-14T12:39:52.316Z,25.23
2022-12-14T12:45:16.864Z,25.33
2022-12-14T12:50:29.958Z,22.95
2022-12-14T12:55:57.569Z,24.67
2022-12-14T13:01:04.701Z,25.17
2022-12-14T13:06:10.435Z,30.33
2022-12-14T13:11:26.257Z,33.75
2022-12-14T13:16:32.186Z,37.97
2022-12-14T13:21:34.722Z,25.55
2022-12-14T13:27:02.973Z,26.15
2022-12-14T13:32:13.410Z,22.90
2022-12-14T13:37:20.808Z,23.17
2022-12-14T13:42:37.552Z,25.77
2022-12-14T13:47:41.070Z,20.65
2022-12-14T13:52:44.082Z,20.95
2022-12-14T13:57:45.711Z,19.33
2022-12-14T14:02:53.464Z,21.65
2022-12-14T14:08:02.151Z,20.58
2022-12-14T14:13:26.540Z,22.48
2022-12-14T14:18:29.641Z,27.13
2022-12-14T14:23:32.789Z,23.20
2022-12-14T14:28:36.331Z,23.60
2022-12-14T14:33:48.384Z,19.90
2022-12-14T14:38:51.019Z,23.83
2022-12-14T14:44:03.330Z,22.17
2022-12-14T14:49:05.773Z,24.52
2022-12-14T14:54:37.685Z,29.13
2022-12-14T14:59:40.462Z,28.42
2022-12-14T15:04:47.215Z,26.00
2022-12-14T15:09:51.264Z,28.95
2022-12-14T15:14:58.693Z,31.73
2022-12-14T15:20:01.362Z,32.78
2022-12-14T15:25:02.979Z,26.23
2022-12-14T15:30:06.447Z,28.83
2022-12-14T15:35:09.418Z,27.20
2022-12-14T15:40:13.211Z,26.90
2022-12-14T15:45:16.294Z,26.95
2022-12-14T15:50:17.770Z,27.27
2022-12-14T15:55:28.284Z,30.88
2022-12-14T16:00:29.719Z,36.30
2022-12-14T16:05:32.684Z,34.22
2022-12-14T16:10:34.262Z,33.60
2022-12-14T16:15:35.908Z,30.13
2022-12-14T16:20:37.868Z,25.95
2022-12-14T16:25:50.223Z,25.20
2022-12-14T16:30:52.727Z,28.10
2022-12-14T16:36:02.400Z,25.30
2022-12-14T16:41:06.086Z,25.40
2022-12-14T16:46:11.819Z,26.13
2022-12-14T16:51:33.102Z,25.15
2022-12-14T16:56:45.548Z,27.40
2022-12-14T17:01:48.385Z,23.45
2022-12-14T17:06:52.851Z,26.35
2022-12-14T17:11:58.931Z,24.92
2022-12-14T17:17:03.926Z,32.13
2022-12-14T17:22:08.599Z,40.75
2022-12-14T17:27:14.539Z,34.85
2022-12-14T17:32:16.674Z,38.28
2022-12-14T17:37:19.708Z,42.88
2022-12-14T17:42:21.759Z,52.30
2022-12-14T17:47:23.664Z,38.88
2022-12-14T17:52:28.446Z,32.10
2022-12-14T17:57:29.883Z,32.28
2022-12-14T18:02:35.709Z,34.28
2022-12-14T18:07:37.373Z,30.80
2022-12-14T18:12:39.092Z,39.03
2022-12-14T18:17:40.736Z,32.45
2022-12-14T18:22:42.237Z,32.20
2022-12-14T18:27:43.661Z,33.72
2022-12-14T18:32:45.061Z,31.75
2022-12-14T18:37:49.335Z,32.67
2022-12-14T18:42:51.282Z,35.67
2022-12-14T18:47:54.229Z,38.05
2022-12-14T18:52:55.809Z,33.47
2022-12-14T18:57:58.095Z,33.03
2022-12-14T19:03:00.976Z,43.85
2022-12-14T19:08:02.702Z,44.38
2022-12-14T19:13:04.359Z,34.50
2022-12-14T19:18:06.060Z,36.08
2022-12-14T19:23:07.518Z,37.10
2022-12-14T19:33:33.859Z,47.63
2022-12-14T19:38:35.929Z,37.00
2022-12-14T19:43:37.728Z,42.72
2022-12-14T19:48:39.479Z,38.78
2022-12-14T19:53:42.834Z,35.72
2022-12-14T19:58:44.363Z,34.60
2022-12-14T20:03:46.070Z,29.02
2022-12-14T20:08:49.457Z,36.58
2022-12-14T20:13:56.737Z,34.10
2022-12-14T20:19:00.335Z,30.33
2022-12-14T20:24:01.863Z,27.70
2022-12-14T20:29:06.179Z,32.85
2022-12-14T20:34:09.032Z,29.25
2022-12-14T20:39:10.519Z,28.38
2022-12-14T20:44:12.628Z,27.55
2022-12-14T20:49:15.725Z,31.33
2022-12-14T20:54:18.084Z,30.10
2022-12-14T20:59:19.669Z,26.33
2022-12-14T21:04:21.266Z,39.85
2022-12-14T21:09:23.066Z,35.10
2022-12-14T21:14:25.764Z,33.35
2022-12-14T21:19:27.414Z,26.77
2022-12-14T21:25:02.580Z,29.80
2022-12-14T21:29:53.455Z,24.73
2022-12-14T21:34:54.837Z,26.52
2022-12-14T21:39:56.258Z,28.90
2022-12-14T21:44:57.803Z,29.65
2022-12-14T21:49:59.218Z,27.85
2022-12-14T21:55:02.121Z,29.42
2022-12-14T22:00:06.997Z,26.33
2022-12-14T22:05:08.708Z,32.92
2022-12-14T22:10:10.093Z,25.63
2022-12-14T22:15:11.513Z,22.92
2022-12-14T22:20:13.126Z,18.92
2022-12-14T22:25:15.472Z,29.40
2022-12-14T22:30:16.883Z,32.70
2022-12-14T22:35:18.409Z,38.00
2022-12-14T22:40:19.746Z,38.05
2022-12-14T22:45:21.196Z,26.05
2022-12-14T22:50:22.552Z,21.55
2022-12-14T22:55:24.286Z,20.63
2022-12-14T23:00:25.805Z,14.68
2022-12-14T23:05:27.294Z,14.50
2022-12-14T23:10:47.184Z,14.13
2022-12-14T23:16:10.395Z,14.95
2022-12-14T23:21:31.249Z,16.55
2022-12-14T23:26:51.763Z,14.75
2022-12-14T23:32:11.566Z,19.27
2022-12-14T23:37:31.910Z,18.95
2022-12-14T23:42:52.395Z,19.90
2022-12-14T23:48:14.453Z,20.15
2022-12-14T23:53:34.600Z,14.75
2022-12-14T23:58:55.216Z,19.30
